sensor_id;sensor_type;location;lat;lon;timestamp;P1;durP1;ratioP1;P2;durP2;ratioP2
9372;SDS011;10838;52.350;9.790;2023-04-24T00:01:25;0.83;;;0.83;;
9372;SDS011;10838;52.350;9.790;2023-04-24T00:03:54;1.37;;;0.80;;
9372;SDS011;10838;52.350;9.790;2023-04-24T00:06:21;2.10;;;0.80;;
9372;SDS011;10838;52.350;9.790;2023-04-24T00:08:49;0.83;;;0.80;;
9372;SDS011;10838;52.350;9.790;2023-04-24T00:11:16;0.87;;;0.70;;
9372;SDS011;10838;52.350;9.790;2023-04-24T00:13:43;2.00;;;0.83;;
9372;SDS011;10838;52.350;9.790;2023-04-24T00:16:09;1.43;;;0.90;;
9372;SDS011;10838;52.350;9.790;2023-04-24T00:18:36;1.00;;;0.90;;
9372;SDS011;10838;52.350;9.790;2023-04-24T00:21:02;0.97;;;0.83;;
9372;SDS011;10838;52.350;9.790;2023-04-24T00:23:29;1.00;;;0.80;;
9372;SDS011;10838;52.350;9.790;2023-04-24T00:25:57;0.73;;;0.73;;
9372;SDS011;10838;52.350;9.790;2023-04-24T00:28:24;1.93;;;0.90;;
9372;SDS011;10838;52.350;9.790;2023-04-24T00:30:51;0.90;;;0.90;;
9372;SDS011;10838;52.350;9.790;2023-04-24T00:33:17;0.80;;;0.80;;
9372;SDS011;10838;52.350;9.790;2023-04-24T00:35:44;0.80;;;0.80;;
9372;SDS011;10838;52.350;9.790;2023-04-24T00:38:10;1.00;;;1.00;;
9372;SDS011;10838;52.350;9.790;2023-04-24T00:40:37;1.70;;;1.13;;
9372;SDS011;10838;52.350;9.790;2023-04-24T00:43:05;2.20;;;0.70;;
9372;SDS011;10838;52.350;9.790;2023-04-24T00:45:31;0.80;;;0.80;;
9372;SDS011;10838;52.350;9.790;2023-04-24T00:47:58;0.90;;;0.90;;
9372;SDS011;10838;52.350;9.790;2023-04-24T00:50:26;0.87;;;0.87;;
9372;SDS011;10838;52.350;9.790;2023-04-24T00:52:54;1.60;;;1.07;;
9372;SDS011;10838;52.350;9.790;2023-04-24T00:55:20;1.20;;;0.90;;
9372;SDS011;10838;52.350;9.790;2023-04-24T00:57:47;1.43;;;0.90;;
9372;SDS011;10838;52.350;9.790;2023-04-24T01:00:17;0.90;;;0.90;;
9372;SDS011;10838;52.350;9.790;2023-04-24T01:02:44;0.90;;;0.90;;
9372;SDS011;10838;52.350;9.790;2023-04-24T01:05:12;0.87;;;0.87;;
9372;SDS011;10838;52.350;9.790;2023-04-24T01:07:40;1.47;;;0.80;;
9372;SDS011;10838;52.350;9.790;2023-04-24T01:10:09;0.80;;;0.80;;
9372;SDS011;10838;52.350;9.790;2023-04-24T01:12:36;0.83;;;0.83;;
9372;SDS011;10838;52.350;9.790;2023-04-24T01:15:03;0.77;;;0.77;;
9372;SDS011;10838;52.350;9.790;2023-04-24T01:17:32;0.80;;;0.80;;
9372;SDS011;10838;52.350;9.790;2023-04-24T01:19:59;0.80;;;0.80;;
9372;SDS011;10838;52.350;9.790;2023-04-24T01:22:31;1.47;;;0.90;;
9372;SDS011;10838;52.350;9.790;2023-04-24T01:24:59;0.80;;;0.80;;
9372;SDS011;10838;52.350;9.790;2023-04-24T01:27:25;1.03;;;0.90;;
9372;SDS011;10838;52.350;9.790;2023-04-24T01:29:52;0.63;;;0.63;;
9372;SDS011;10838;52.350;9.790;2023-04-24T01:32:18;0.83;;;0.83;;
9372;SDS011;10838;52.350;9.790;2023-04-24T01:34:45;2.00;;;0.80;;
9372;SDS011;10838;52.350;9.790;2023-04-24T01:37:13;2.37;;;0.87;;
9372;SDS011;10838;52.350;9.790;2023-04-24T01:39:41;0.80;;;0.80;;
9372;SDS011;10838;52.350;9.790;2023-04-24T01:42:08;0.80;;;0.80;;
9372;SDS011;10838;52.350;9.790;2023-04-24T01:44:35;0.83;;;0.83;;
9372;SDS011;10838;52.350;9.790;2023-04-24T01:47:02;0.90;;;0.80;;
9372;SDS011;10838;52.350;9.790;2023-04-24T01:49:28;1.43;;;0.80;;
9372;SDS011;10838;52.350;9.790;2023-04-24T01:51:55;1.07;;;0.70;;
9372;SDS011;10838;52.350;9.790;2023-04-24T01:54:22;2.27;;;0.80;;
9372;SDS011;10838;52.350;9.790;2023-04-24T01:56:50;0.77;;;0.77;;
9372;SDS011;10838;52.350;9.790;2023-04-24T01:59:17;1.93;;;0.93;;
9372;SDS011;10838;52.350;9.790;2023-04-24T02:01:43;1.20;;;1.20;;
9372;SDS011;10838;52.350;9.790;2023-04-24T02:04:10;1.97;;;1.50;;
9372;SDS011;10838;52.350;9.790;2023-04-24T02:06:36;1.60;;;1.50;;
9372;SDS011;10838;52.350;9.790;2023-04-24T02:09:03;1.70;;;1.27;;
9372;SDS011;10838;52.350;9.790;2023-04-24T02:11:30;6.10;;;1.50;;
9372;SDS011;10838;52.350;9.790;2023-04-24T02:13:57;1.70;;;1.50;;
9372;SDS011;10838;52.350;9.790;2023-04-24T02:16:24;3.67;;;1.70;;
9372;SDS011;10838;52.350;9.790;2023-04-24T02:18:51;1.60;;;1.47;;
9372;SDS011;10838;52.350;9.790;2023-04-24T02:21:17;1.70;;;1.60;;
9372;SDS011;10838;52.350;9.790;2023-04-24T02:23:44;1.57;;;1.47;;
9372;SDS011;10838;52.350;9.790;2023-04-24T02:26:10;2.23;;;1.40;;
9372;SDS011;10838;52.350;9.790;2023-04-24T02:28:37;1.07;;;0.90;;
9372;SDS011;10838;52.350;9.790;2023-04-24T02:31:05;1.23;;;1.13;;
9372;SDS011;10838;52.350;9.790;2023-04-24T02:33:31;3.53;;;0.90;;
9372;SDS011;10838;52.350;9.790;2023-04-24T02:35:58;0.80;;;0.80;;
9372;SDS011;10838;52.350;9.790;2023-04-24T02:38:25;1.10;;;1.00;;
9372;SDS011;10838;52.350;9.790;2023-04-24T02:40:52;1.03;;;1.03;;
9372;SDS011;10838;52.350;9.790;2023-04-24T02:43:18;1.00;;;1.00;;
9372;SDS011;10838;52.350;9.790;2023-04-24T02:45:45;0.90;;;0.90;;
9372;SDS011;10838;52.350;9.790;2023-04-24T02:48:13;0.90;;;0.90;;
9372;SDS011;10838;52.350;9.790;2023-04-24T02:50:39;0.90;;;0.90;;
9372;SDS011;10838;52.350;9.790;2023-04-24T02:53:06;1.40;;;0.90;;
9372;SDS011;10838;52.350;9.790;2023-04-24T02:55:32;0.90;;;0.90;;
9372;SDS011;10838;52.350;9.790;2023-04-24T02:57:59;1.07;;;1.03;;
9372;SDS011;10838;52.350;9.790;2023-04-24T03:00:26;2.93;;;1.00;;
9372;SDS011;10838;52.350;9.790;2023-04-24T03:02:52;0.87;;;0.87;;
9372;SDS011;10838;52.350;9.790;2023-04-24T03:05:20;1.10;;;1.10;;
9372;SDS011;10838;52.350;9.790;2023-04-24T03:07:47;0.83;;;0.83;;
9372;SDS011;10838;52.350;9.790;2023-04-24T03:10:13;2.67;;;0.80;;
9372;SDS011;10838;52.350;9.790;2023-04-24T03:12:40;3.47;;;0.87;;
9372;SDS011;10838;52.350;9.790;2023-04-24T03:15:07;0.90;;;0.90;;
9372;SDS011;10838;52.350;9.790;2023-04-24T03:17:34;1.43;;;0.87;;
9372;SDS011;10838;52.350;9.790;2023-04-24T03:20:01;1.37;;;0.60;;
9372;SDS011;10838;52.350;9.790;2023-04-24T03:22:31;0.80;;;0.80;;
9372;SDS011;10838;52.350;9.790;2023-04-24T03:24:58;5.43;;;1.03;;
9372;SDS011;10838;52.350;9.790;2023-04-24T03:27:25;4.23;;;1.17;;
9372;SDS011;10838;52.350;9.790;2023-04-24T03:29:51;2.77;;;0.77;;
9372;SDS011;10838;52.350;9.790;2023-04-24T03:32:20;0.80;;;0.80;;
9372;SDS011;10838;52.350;9.790;2023-04-24T03:34:46;8.20;;;1.43;;
9372;SDS011;10838;52.350;9.790;2023-04-24T03:37:14;3.37;;;0.83;;
9372;SDS011;10838;52.350;9.790;2023-04-24T03:39:42;2.10;;;1.10;;
9372;SDS011;10838;52.350;9.790;2023-04-24T03:42:08;3.10;;;1.00;;
9372;SDS011;10838;52.350;9.790;2023-04-24T03:44:35;0.83;;;0.83;;
9372;SDS011;10838;52.350;9.790;2023-04-24T03:47:02;0.90;;;0.90;;
9372;SDS011;10838;52.350;9.790;2023-04-24T03:49:28;1.10;;;1.00;;
9372;SDS011;10838;52.350;9.790;2023-04-24T03:51:55;4.93;;;1.20;;
9372;SDS011;10838;52.350;9.790;2023-04-24T03:54:22;4.20;;;1.20;;
9372;SDS011;10838;52.350;9.790;2023-04-24T03:56:50;1.33;;;1.23;;
9372;SDS011;10838;52.350;9.790;2023-04-24T03:59:16;1.27;;;1.07;;
9372;SDS011;10838;52.350;9.790;2023-04-24T04:01:43;1.47;;;1.00;;
9372;SDS011;10838;52.350;9.790;2023-04-24T04:04:10;1.17;;;1.10;;
9372;SDS011;10838;52.350;9.790;2023-04-24T04:06:37;1.30;;;0.80;;
9372;SDS011;10838;52.350;9.790;2023-04-24T04:09:03;1.77;;;1.20;;
9372;SDS011;10838;52.350;9.790;2023-04-24T04:11:30;0.90;;;0.90;;
9372;SDS011;10838;52.350;9.790;2023-04-24T04:13:58;1.37;;;1.10;;
9372;SDS011;10838;52.350;9.790;2023-04-24T04:16:24;1.83;;;1.00;;
9372;SDS011;10838;52.350;9.790;2023-04-24T04:18:51;1.80;;;1.20;;
9372;SDS011;10838;52.350;9.790;2023-04-24T04:21:18;0.90;;;0.90;;
9372;SDS011;10838;52.350;9.790;2023-04-24T04:23:44;3.77;;;0.90;;
9372;SDS011;10838;52.350;9.790;2023-04-24T04:26:11;2.33;;;0.97;;
9372;SDS011;10838;52.350;9.790;2023-04-24T04:28:37;0.80;;;0.80;;
9372;SDS011;10838;52.350;9.790;2023-04-24T04:31:06;1.70;;;1.17;;
9372;SDS011;10838;52.350;9.790;2023-04-24T04:33:33;2.83;;;1.53;;
9372;SDS011;10838;52.350;9.790;2023-04-24T04:36:01;4.97;;;3.20;;
9372;SDS011;10838;52.350;9.790;2023-04-24T04:38:28;2.30;;;2.00;;
9372;SDS011;10838;52.350;9.790;2023-04-24T04:40:55;4.47;;;3.13;;
9372;SDS011;10838;52.350;9.790;2023-04-24T04:43:23;4.23;;;2.73;;
9372;SDS011;10838;52.350;9.790;2023-04-24T04:45:49;7.37;;;5.20;;
9372;SDS011;10838;52.350;9.790;2023-04-24T04:48:18;16.73;;;11.17;;
9372;SDS011;10838;52.350;9.790;2023-04-24T04:50:44;17.17;;;10.20;;
9372;SDS011;10838;52.350;9.790;2023-04-24T04:53:11;17.57;;;13.10;;
9372;SDS011;10838;52.350;9.790;2023-04-24T04:55:37;9.03;;;6.60;;
9372;SDS011;10838;52.350;9.790;2023-04-24T04:58:04;9.10;;;6.50;;
9372;SDS011;10838;52.350;9.790;2023-04-24T05:00:31;16.27;;;5.17;;
9372;SDS011;10838;52.350;9.790;2023-04-24T05:03:00;8.10;;;5.43;;
9372;SDS011;10838;52.350;9.790;2023-04-24T05:05:28;10.73;;;5.87;;
9372;SDS011;10838;52.350;9.790;2023-04-24T05:07:55;3.30;;;2.20;;
9372;SDS011;10838;52.350;9.790;2023-04-24T05:10:21;1.50;;;1.40;;
9372;SDS011;10838;52.350;9.790;2023-04-24T05:12:48;4.60;;;3.00;;
9372;SDS011;10838;52.350;9.790;2023-04-24T05:15:15;3.70;;;3.30;;
9372;SDS011;10838;52.350;9.790;2023-04-24T05:17:41;6.20;;;2.77;;
9372;SDS011;10838;52.350;9.790;2023-04-24T05:20:08;6.17;;;2.60;;
9372;SDS011;10838;52.350;9.790;2023-04-24T05:22:36;4.77;;;2.60;;
9372;SDS011;10838;52.350;9.790;2023-04-24T05:25:03;2.97;;;1.97;;
9372;SDS011;10838;52.350;9.790;2023-04-24T05:27:30;2.40;;;1.50;;
9372;SDS011;10838;52.350;9.790;2023-04-24T05:29:57;2.50;;;1.80;;
9372;SDS011;10838;52.350;9.790;2023-04-24T05:32:23;0.93;;;0.93;;
9372;SDS011;10838;52.350;9.790;2023-04-24T05:34:51;1.47;;;1.10;;
9372;SDS011;10838;52.350;9.790;2023-04-24T05:37:18;1.17;;;1.17;;
9372;SDS011;10838;52.350;9.790;2023-04-24T05:39:46;1.00;;;1.00;;
9372;SDS011;10838;52.350;9.790;2023-04-24T05:42:13;2.20;;;1.00;;
9372;SDS011;10838;52.350;9.790;2023-04-24T05:44:39;2.30;;;1.03;;
9372;SDS011;10838;52.350;9.790;2023-04-24T05:47:06;4.73;;;1.10;;
9372;SDS011;10838;52.350;9.790;2023-04-24T05:49:32;2.03;;;1.20;;
9372;SDS011;10838;52.350;9.790;2023-04-24T05:51:59;1.00;;;1.00;;
9372;SDS011;10838;52.350;9.790;2023-04-24T05:54:26;1.20;;;1.10;;
9372;SDS011;10838;52.350;9.790;2023-04-24T05:56:53;1.00;;;1.00;;
9372;SDS011;10838;52.350;9.790;2023-04-24T05:59:20;1.60;;;1.50;;
9372;SDS011;10838;52.350;9.790;2023-04-24T06:01:47;1.00;;;1.00;;
9372;SDS011;10838;52.350;9.790;2023-04-24T06:04:14;2.00;;;1.33;;
9372;SDS011;10838;52.350;9.790;2023-04-24T06:06:40;1.70;;;1.57;;
9372;SDS011;10838;52.350;9.790;2023-04-24T06:09:07;1.13;;;1.10;;
9372;SDS011;10838;52.350;9.790;2023-04-24T06:11:33;4.20;;;1.50;;
9372;SDS011;10838;52.350;9.790;2023-04-24T06:14:01;1.00;;;1.00;;
9372;SDS011;10838;52.350;9.790;2023-04-24T06:16:28;1.97;;;1.10;;
9372;SDS011;10838;52.350;9.790;2023-04-24T06:18:56;1.13;;;0.87;;
9372;SDS011;10838;52.350;9.790;2023-04-24T06:21:23;0.80;;;0.80;;
9372;SDS011;10838;52.350;9.790;2023-04-24T06:23:50;0.70;;;0.70;;
9372;SDS011;10838;52.350;9.790;2023-04-24T06:26:17;0.90;;;0.90;;
9372;SDS011;10838;52.350;9.790;2023-04-24T06:28:43;0.97;;;0.97;;
9372;SDS011;10838;52.350;9.790;2023-04-24T06:31:11;1.60;;;1.10;;
9372;SDS011;10838;52.350;9.790;2023-04-24T06:33:38;1.10;;;1.10;;
9372;SDS011;10838;52.350;9.790;2023-04-24T06:36:04;1.10;;;1.10;;
9372;SDS011;10838;52.350;9.790;2023-04-24T06:38:32;1.83;;;1.30;;
9372;SDS011;10838;52.350;9.790;2023-04-24T06:40:59;1.40;;;1.30;;
9372;SDS011;10838;52.350;9.790;2023-04-24T06:43:25;5.47;;;1.40;;
9372;SDS011;10838;52.350;9.790;2023-04-24T06:45:52;1.40;;;1.30;;
9372;SDS011;10838;52.350;9.790;2023-04-24T06:48:20;1.57;;;1.47;;
9372;SDS011;10838;52.350;9.790;2023-04-24T06:50:46;1.40;;;1.30;;
9372;SDS011;10838;52.350;9.790;2023-04-24T06:53:13;1.70;;;1.70;;
9372;SDS011;10838;52.350;9.790;2023-04-24T06:55:39;2.10;;;1.93;;
9372;SDS011;10838;52.350;9.790;2023-04-24T06:58:06;2.20;;;2.10;;
9372;SDS011;10838;52.350;9.790;2023-04-24T07:00:33;1.87;;;1.83;;
9372;SDS011;10838;52.350;9.790;2023-04-24T07:03:00;3.73;;;2.60;;
9372;SDS011;10838;52.350;9.790;2023-04-24T07:05:28;2.70;;;2.50;;
9372;SDS011;10838;52.350;9.790;2023-04-24T07:07:55;3.40;;;2.73;;
9372;SDS011;10838;52.350;9.790;2023-04-24T07:10:23;2.87;;;2.70;;
9372;SDS011;10838;52.350;9.790;2023-04-24T07:12:52;4.50;;;3.00;;
9372;SDS011;10838;52.350;9.790;2023-04-24T07:15:19;4.30;;;3.10;;
9372;SDS011;10838;52.350;9.790;2023-04-24T07:17:45;3.03;;;2.80;;
9372;SDS011;10838;52.350;9.790;2023-04-24T07:20:12;3.60;;;3.30;;
9372;SDS011;10838;52.350;9.790;2023-04-24T07:22:41;4.77;;;3.30;;
9372;SDS011;10838;52.350;9.790;2023-04-24T07:25:09;3.47;;;3.17;;
9372;SDS011;10838;52.350;9.790;2023-04-24T07:27:35;3.40;;;3.20;;
9372;SDS011;10838;52.350;9.790;2023-04-24T07:30:02;3.57;;;3.33;;
9372;SDS011;10838;52.350;9.790;2023-04-24T07:32:30;3.60;;;3.30;;
9372;SDS011;10838;52.350;9.790;2023-04-24T07:34:56;2.97;;;2.77;;
9372;SDS011;10838;52.350;9.790;2023-04-24T07:37:23;3.20;;;3.00;;
9372;SDS011;10838;52.350;9.790;2023-04-24T07:39:51;3.80;;;3.50;;
9372;SDS011;10838;52.350;9.790;2023-04-24T07:42:17;4.40;;;3.43;;
9372;SDS011;10838;52.350;9.790;2023-04-24T07:44:44;5.73;;;3.43;;
9372;SDS011;10838;52.350;9.790;2023-04-24T07:47:12;5.03;;;3.87;;
9372;SDS011;10838;52.350;9.790;2023-04-24T07:49:40;4.07;;;3.77;;
9372;SDS011;10838;52.350;9.790;2023-04-24T07:52:07;4.93;;;3.50;;
9372;SDS011;10838;52.350;9.790;2023-04-24T07:54:34;4.00;;;3.67;;
9372;SDS011;10838;52.350;9.790;2023-04-24T07:57:03;4.33;;;3.93;;
9372;SDS011;10838;52.350;9.790;2023-04-24T07:59:31;4.63;;;4.23;;
9372;SDS011;10838;52.350;9.790;2023-04-24T08:01:58;4.43;;;3.90;;
9372;SDS011;10838;52.350;9.790;2023-04-24T08:04:26;5.83;;;4.23;;
9372;SDS011;10838;52.350;9.790;2023-04-24T08:06:52;4.60;;;4.20;;
9372;SDS011;10838;52.350;9.790;2023-04-24T08:09:19;8.07;;;4.90;;
9372;SDS011;10838;52.350;9.790;2023-04-24T08:11:45;4.90;;;4.50;;
9372;SDS011;10838;52.350;9.790;2023-04-24T08:14:13;5.67;;;5.17;;
9372;SDS011;10838;52.350;9.790;2023-04-24T08:16:40;5.03;;;4.63;;
9372;SDS011;10838;52.350;9.790;2023-04-24T08:19:07;5.03;;;4.37;;
9372;SDS011;10838;52.350;9.790;2023-04-24T08:21:34;4.90;;;4.50;;
9372;SDS011;10838;52.350;9.790;2023-04-24T08:24:00;6.37;;;4.33;;
9372;SDS011;10838;52.350;9.790;2023-04-24T08:26:30;5.10;;;4.70;;
9372;SDS011;10838;52.350;9.790;2023-04-24T08:28:56;4.93;;;4.63;;
9372;SDS011;10838;52.350;9.790;2023-04-24T08:31:24;4.90;;;4.50;;
9372;SDS011;10838;52.350;9.790;2023-04-24T08:33:51;6.27;;;4.50;;
9372;SDS011;10838;52.350;9.790;2023-04-24T08:36:18;5.23;;;4.80;;
9372;SDS011;10838;52.350;9.790;2023-04-24T08:38:44;4.83;;;4.43;;
9372;SDS011;10838;52.350;9.790;2023-04-24T08:41:11;4.53;;;4.23;;
9372;SDS011;10838;52.350;9.790;2023-04-24T08:43:40;4.80;;;4.40;;
9372;SDS011;10838;52.350;9.790;2023-04-24T08:46:07;4.47;;;4.17;;
9372;SDS011;10838;52.350;9.790;2023-04-24T08:48:36;5.13;;;3.87;;
9372;SDS011;10838;52.350;9.790;2023-04-24T08:51:05;4.97;;;4.50;;
9372;SDS011;10838;52.350;9.790;2023-04-24T08:53:33;4.70;;;4.40;;
9372;SDS011;10838;52.350;9.790;2023-04-24T08:56:01;4.37;;;3.80;;
9372;SDS011;10838;52.350;9.790;2023-04-24T08:58:29;4.37;;;3.97;;
9372;SDS011;10838;52.350;9.790;2023-04-24T09:00:56;4.40;;;4.00;;
9372;SDS011;10838;52.350;9.790;2023-04-24T09:03:23;4.50;;;4.03;;
9372;SDS011;10838;52.350;9.790;2023-04-24T09:05:52;3.70;;;3.40;;
9372;SDS011;10838;52.350;9.790;2023-04-24T09:08:20;3.30;;;3.10;;
9372;SDS011;10838;52.350;9.790;2023-04-24T09:10:50;2.67;;;2.30;;
9372;SDS011;10838;52.350;9.790;2023-04-24T09:13:17;3.30;;;2.30;;
9372;SDS011;10838;52.350;9.790;2023-04-24T09:15:45;2.40;;;2.27;;
9372;SDS011;10838;52.350;9.790;2023-04-24T09:18:12;4.00;;;2.10;;
9372;SDS011;10838;52.350;9.790;2023-04-24T09:23:25;2.27;;;2.17;;
9372;SDS011;10838;52.350;9.790;2023-04-24T09:25:54;2.30;;;2.10;;
9372;SDS011;10838;52.350;9.790;2023-04-24T09:28:24;2.83;;;2.00;;
9372;SDS011;10838;52.350;9.790;2023-04-24T09:31:01;2.97;;;2.23;;
9372;SDS011;10838;52.350;9.790;2023-04-24T09:33:28;5.97;;;2.20;;
9372;SDS011;10838;52.350;9.790;2023-04-24T09:35:55;2.90;;;2.33;;
9372;SDS011;10838;52.350;9.790;2023-04-24T09:38:31;2.70;;;2.50;;
9372;SDS011;10838;52.350;9.790;2023-04-24T09:41:02;2.93;;;2.20;;
9372;SDS011;10838;52.350;9.790;2023-04-24T09:43:30;2.70;;;2.50;;
9372;SDS011;10838;52.350;9.790;2023-04-24T09:45:58;4.33;;;2.83;;
9372;SDS011;10838;52.350;9.790;2023-04-24T09:48:32;4.07;;;2.80;;
9372;SDS011;10838;52.350;9.790;2023-04-24T09:51:00;3.00;;;2.80;;
9372;SDS011;10838;52.350;9.790;2023-04-24T09:53:28;3.37;;;2.50;;
9372;SDS011;10838;52.350;9.790;2023-04-24T09:55:56;2.87;;;2.67;;
9372;SDS011;10838;52.350;9.790;2023-04-24T09:58:28;2.90;;;2.70;;
9372;SDS011;10838;52.350;9.790;2023-04-24T10:00:56;3.03;;;2.40;;
9372;SDS011;10838;52.350;9.790;2023-04-24T10:03:23;2.50;;;2.40;;
9372;SDS011;10838;52.350;9.790;2023-04-24T10:05:51;2.93;;;2.67;;
9372;SDS011;10838;52.350;9.790;2023-04-24T10:08:19;2.60;;;2.50;;
9372;SDS011;10838;52.350;9.790;2023-04-24T10:10:46;2.53;;;1.90;;
9372;SDS011;10838;52.350;9.790;2023-04-24T10:13:14;2.07;;;1.97;;
9372;SDS011;10838;52.350;9.790;2023-04-24T10:15:41;2.23;;;2.13;;
9372;SDS011;10838;52.350;9.790;2023-04-24T10:18:08;2.40;;;2.23;;
9372;SDS011;10838;52.350;9.790;2023-04-24T10:20:37;2.70;;;2.50;;
9372;SDS011;10838;52.350;9.790;2023-04-24T10:23:04;2.50;;;2.40;;
9372;SDS011;10838;52.350;9.790;2023-04-24T10:25:32;4.20;;;2.80;;
9372;SDS011;10838;52.350;9.790;2023-04-24T10:28:00;2.90;;;2.70;;
9372;SDS011;10838;52.350;9.790;2023-04-24T10:30:30;2.47;;;2.30;;
9372;SDS011;10838;52.350;9.790;2023-04-24T10:33:00;2.57;;;2.33;;
9372;SDS011;10838;52.350;9.790;2023-04-24T10:35:26;2.27;;;2.17;;
9372;SDS011;10838;52.350;9.790;2023-04-24T10:37:57;2.50;;;2.40;;
9372;SDS011;10838;52.350;9.790;2023-04-24T10:40:26;2.40;;;2.20;;
9372;SDS011;10838;52.350;9.790;2023-04-24T10:42:56;3.03;;;2.50;;
9372;SDS011;10838;52.350;9.790;2023-04-24T10:45:23;3.43;;;2.47;;
9372;SDS011;10838;52.350;9.790;2023-04-24T10:47:52;10.27;;;2.47;;
9372;SDS011;10838;52.350;9.790;2023-04-24T10:50:19;2.20;;;2.10;;
9372;SDS011;10838;52.350;9.790;2023-04-24T10:52:46;2.27;;;2.17;;
9372;SDS011;10838;52.350;9.790;2023-04-24T10:55:16;2.00;;;1.90;;
9372;SDS011;10838;52.350;9.790;2023-04-24T10:58:03;3.33;;;2.10;;
9372;SDS011;10838;52.350;9.790;2023-04-24T11:00:30;8.37;;;2.40;;
9372;SDS011;10838;52.350;9.790;2023-04-24T11:02:58;2.00;;;1.90;;
9372;SDS011;10838;52.350;9.790;2023-04-24T11:08:21;2.77;;;1.90;;
9372;SDS011;10838;52.350;9.790;2023-04-24T11:10:57;1.77;;;1.70;;
9372;SDS011;10838;52.350;9.790;2023-04-24T11:13:25;1.80;;;1.80;;
9372;SDS011;10838;52.350;9.790;2023-04-24T11:18:51;1.80;;;1.70;;
9372;SDS011;10838;52.350;9.790;2023-04-24T11:21:19;1.87;;;1.77;;
9372;SDS011;10838;52.350;9.790;2023-04-24T11:23:46;1.90;;;1.77;;
9372;SDS011;10838;52.350;9.790;2023-04-24T11:26:14;1.50;;;1.50;;
9372;SDS011;10838;52.350;9.790;2023-04-24T11:28:44;3.60;;;1.70;;
9372;SDS011;10838;52.350;9.790;2023-04-24T11:34:06;1.43;;;1.30;;
9372;SDS011;10838;52.350;9.790;2023-04-24T11:36:34;1.33;;;1.33;;
9372;SDS011;10838;52.350;9.790;2023-04-24T11:39:01;1.30;;;1.20;;
9372;SDS011;10838;52.350;9.790;2023-04-24T11:41:28;1.20;;;1.20;;
9372;SDS011;10838;52.350;9.790;2023-04-24T11:43:55;1.40;;;1.27;;
9372;SDS011;10838;52.350;9.790;2023-04-24T11:46:22;1.00;;;1.00;;
9372;SDS011;10838;52.350;9.790;2023-04-24T11:48:52;1.90;;;1.13;;
9372;SDS011;10838;52.350;9.790;2023-04-24T11:51:20;1.33;;;1.10;;
9372;SDS011;10838;52.350;9.790;2023-04-24T11:53:48;1.10;;;1.00;;
9372;SDS011;10838;52.350;9.790;2023-04-24T11:56:17;0.90;;;0.90;;
9372;SDS011;10838;52.350;9.790;2023-04-24T11:58:45;1.17;;;1.00;;
9372;SDS011;10838;52.350;9.790;2023-04-24T12:01:11;0.80;;;0.80;;
9372;SDS011;10838;52.350;9.790;2023-04-24T12:03:38;0.80;;;0.80;;
9372;SDS011;10838;52.350;9.790;2023-04-24T12:06:05;0.93;;;0.93;;
9372;SDS011;10838;52.350;9.790;2023-04-24T12:08:34;3.43;;;1.00;;
9372;SDS011;10838;52.350;9.790;2023-04-24T12:11:01;1.10;;;1.00;;
9372;SDS011;10838;52.350;9.790;2023-04-24T12:13:28;0.90;;;0.90;;
9372;SDS011;10838;52.350;9.790;2023-04-24T12:15:56;0.90;;;0.90;;
9372;SDS011;10838;52.350;9.790;2023-04-24T12:18:23;0.87;;;0.80;;
9372;SDS011;10838;52.350;9.790;2023-04-24T12:20:50;0.67;;;0.67;;
9372;SDS011;10838;52.350;9.790;2023-04-24T12:23:16;0.87;;;0.87;;
9372;SDS011;10838;52.350;9.790;2023-04-24T12:26:03;0.97;;;0.70;;
9372;SDS011;10838;52.350;9.790;2023-04-24T12:28:34;1.70;;;0.70;;
9372;SDS011;10838;52.350;9.790;2023-04-24T12:31:02;0.70;;;0.70;;
9372;SDS011;10838;52.350;9.790;2023-04-24T12:33:32;1.67;;;0.90;;
9372;SDS011;10838;52.350;9.790;2023-04-24T12:35:59;0.50;;;0.50;;
9372;SDS011;10838;52.350;9.790;2023-04-24T12:38:26;0.70;;;0.70;;
9372;SDS011;10838;52.350;9.790;2023-04-24T12:41:02;2.73;;;0.70;;
9372;SDS011;10838;52.350;9.790;2023-04-24T12:43:30;0.70;;;0.70;;
9372;SDS011;10838;52.350;9.790;2023-04-24T12:45:57;0.67;;;0.67;;
9372;SDS011;10838;52.350;9.790;2023-04-24T12:48:24;0.83;;;0.83;;
9372;SDS011;10838;52.350;9.790;2023-04-24T12:50:50;0.90;;;0.90;;
9372;SDS011;10838;52.350;9.790;2023-04-24T12:53:17;0.80;;;0.80;;
9372;SDS011;10838;52.350;9.790;2023-04-24T12:55:44;0.80;;;0.80;;
9372;SDS011;10838;52.350;9.790;2023-04-24T12:58:13;0.93;;;0.93;;
9372;SDS011;10838;52.350;9.790;2023-04-24T13:00:39;1.10;;;1.10;;
9372;SDS011;10838;52.350;9.790;2023-04-24T13:03:08;1.07;;;1.07;;
9372;SDS011;10838;52.350;9.790;2023-04-24T13:05:34;3.80;;;1.20;;
9372;SDS011;10838;52.350;9.790;2023-04-24T13:08:01;2.00;;;1.90;;
9372;SDS011;10838;52.350;9.790;2023-04-24T13:10:27;0.90;;;0.90;;
9372;SDS011;10838;52.350;9.790;2023-04-24T13:12:54;0.93;;;0.90;;
9372;SDS011;10838;52.350;9.790;2023-04-24T13:15:22;1.20;;;1.10;;
9372;SDS011;10838;52.350;9.790;2023-04-24T13:17:50;2.47;;;1.20;;
9372;SDS011;10838;52.350;9.790;2023-04-24T13:20:16;4.43;;;1.10;;
9372;SDS011;10838;52.350;9.790;2023-04-24T13:22:43;1.17;;;0.77;;
9372;SDS011;10838;52.350;9.790;2023-04-24T13:25:10;3.60;;;0.97;;
9372;SDS011;10838;52.350;9.790;2023-04-24T13:27:37;1.10;;;1.10;;
9372;SDS011;10838;52.350;9.790;2023-04-24T13:30:04;0.93;;;0.93;;
9372;SDS011;10838;52.350;9.790;2023-04-24T13:32:33;1.07;;;0.90;;
9372;SDS011;10838;52.350;9.790;2023-04-24T13:35:00;0.70;;;0.70;;
9372;SDS011;10838;52.350;9.790;2023-04-24T13:37:27;0.70;;;0.70;;
9372;SDS011;10838;52.350;9.790;2023-04-24T13:39:54;3.63;;;0.93;;
9372;SDS011;10838;52.350;9.790;2023-04-24T13:42:20;1.00;;;0.90;;
9372;SDS011;10838;52.350;9.790;2023-04-24T13:44:47;0.70;;;0.70;;
9372;SDS011;10838;52.350;9.790;2023-04-24T13:47:13;1.97;;;0.70;;
9372;SDS011;10838;52.350;9.790;2023-04-24T13:49:41;0.87;;;0.60;;
9372;SDS011;10838;52.350;9.790;2023-04-24T13:52:08;0.40;;;0.40;;
9372;SDS011;10838;52.350;9.790;2023-04-24T13:54:35;0.43;;;0.40;;
9372;SDS011;10838;52.350;9.790;2023-04-24T13:57:02;3.60;;;0.60;;
9372;SDS011;10838;52.350;9.790;2023-04-24T13:59:29;0.33;;;0.33;;
9372;SDS011;10838;52.350;9.790;2023-04-24T14:01:56;0.40;;;0.40;;
9372;SDS011;10838;52.350;9.790;2023-04-24T14:04:22;0.60;;;0.60;;
9372;SDS011;10838;52.350;9.790;2023-04-24T14:06:50;0.43;;;0.43;;
9372;SDS011;10838;52.350;9.790;2023-04-24T14:09:16;1.37;;;0.60;;
9372;SDS011;10838;52.350;9.790;2023-04-24T14:11:43;0.50;;;0.50;;
9372;SDS011;10838;52.350;9.790;2023-04-24T14:14:10;0.53;;;0.53;;
9372;SDS011;10838;52.350;9.790;2023-04-24T14:16:36;0.60;;;0.60;;
9372;SDS011;10838;52.350;9.790;2023-04-24T14:19:03;0.90;;;0.90;;
9372;SDS011;10838;52.350;9.790;2023-04-24T14:21:31;1.10;;;1.00;;
9372;SDS011;10838;52.350;9.790;2023-04-24T14:23:59;0.70;;;0.70;;
9372;SDS011;10838;52.350;9.790;2023-04-24T14:26:26;0.67;;;0.67;;
9372;SDS011;10838;52.350;9.790;2023-04-24T14:28:52;1.60;;;0.90;;
9372;SDS011;10838;52.350;9.790;2023-04-24T14:31:20;1.00;;;1.00;;
9372;SDS011;10838;52.350;9.790;2023-04-24T14:33:46;1.27;;;1.17;;
9372;SDS011;10838;52.350;9.790;2023-04-24T14:36:13;5.00;;;1.50;;
9372;SDS011;10838;52.350;9.790;2023-04-24T14:38:40;4.93;;;1.57;;
9372;SDS011;10838;52.350;9.790;2023-04-24T14:41:07;1.47;;;1.37;;
9372;SDS011;10838;52.350;9.790;2023-04-24T14:43:36;1.73;;;1.60;;
9372;SDS011;10838;52.350;9.790;2023-04-24T14:46:04;1.80;;;1.60;;
9372;SDS011;10838;52.350;9.790;2023-04-24T14:48:31;1.60;;;1.50;;
9372;SDS011;10838;52.350;9.790;2023-04-24T14:50:57;1.50;;;1.40;;
9372;SDS011;10838;52.350;9.790;2023-04-24T14:53:24;1.83;;;1.73;;
9372;SDS011;10838;52.350;9.790;2023-04-24T14:55:51;2.63;;;1.60;;
9372;SDS011;10838;52.350;9.790;2023-04-24T14:58:19;2.33;;;1.70;;
9372;SDS011;10838;52.350;9.790;2023-04-24T15:00:45;2.43;;;1.90;;
9372;SDS011;10838;52.350;9.790;2023-04-24T15:03:14;4.80;;;2.23;;
9372;SDS011;10838;52.350;9.790;2023-04-24T15:05:42;4.60;;;2.30;;
9372;SDS011;10838;52.350;9.790;2023-04-24T15:08:08;4.93;;;2.67;;
9372;SDS011;10838;52.350;9.790;2023-04-24T15:10:35;3.13;;;2.37;;
9372;SDS011;10838;52.350;9.790;2023-04-24T15:13:02;4.40;;;2.40;;